Time,TemperatureF,DewpointF,PressureIn,WindDirection,WindDirectionDegrees,WindSpeedMPH,WindSpeedGustMPH,Humidity,HourlyPrecipIn,Conditions,Clouds,dailyrainin,SoftwareType,DateUTC
2013-05-15 00:00:00,57.2,49.0,30.06,ESE,105,0.0,2.0,74,0.00,,---,0.00,VWS V14.01,2013-05-15 04:00:00,
2013-05-15 00:01:00,57.1,48.9,30.06,ESE,105,0.0,0.0,74,0.00,,---,0.00,VWS V14.01,2013-05-15 04:01:00,
2013-05-15 00:06:00,56.8,49.3,30.07,ESE,105,0.0,1.0,76,0.00,,---,0.00,VWS V14.01,2013-05-15 04:06:00,
2013-05-15 00:11:00,56.8,49.3,30.06,ESE,105,0.0,1.0,76,0.00,,---,0.00,VWS V14.01,2013-05-15 04:11:00,
2013-05-15 00:16:00,56.7,49.2,30.06,ESE,105,0.0,1.0,76,0.00,,---,0.00,VWS V14.01,2013-05-15 04:16:00,
2013-05-15 00:21:00,56.6,49.5,30.06,ESE,105,0.0,1.0,77,0.00,,---,0.00,VWS V14.01,2013-05-15 04:21:00,
2013-05-15 00:26:00,56.6,49.1,30.05,ESE,105,0.0,2.0,76,0.00,,---,0.00,VWS V14.01,2013-05-15 04:26:00,
2013-05-15 00:30:00,56.7,49.2,30.05,ESE,105,0.0,2.0,76,0.00,,---,0.00,VWS V14.01,2013-05-15 04:30:00,
2013-05-15 00:31:00,56.7,49.2,30.05,ESE,105,0.0,0.0,76,0.00,,---,0.00,VWS V14.01,2013-05-15 04:31:00,
2013-05-15 00:36:00,56.7,49.2,30.04,ESE,116,0.0,2.0,76,0.00,,---,0.00,VWS V14.01,2013-05-15 04:36:00,
2013-05-15 00:41:00,57.0,49.2,30.04,East,96,1.0,3.0,75,0.00,,---,0.00,VWS V14.01,2013-05-15 04:41:00,
2013-05-15 00:46:00,57.1,49.3,30.04,East,99,0.0,3.0,75,0.00,,---,0.00,VWS V14.01,2013-05-15 04:46:00,
2013-05-15 00:51:00,56.9,49.1,30.04,East,99,0.0,3.0,75,0.00,,---,0.00,VWS V14.01,2013-05-15 04:51:00,
2013-05-15 00:55:00,57.1,49.3,30.04,East,99,0.0,3.0,75,0.00,,---,0.00,VWS V14.01,2013-05-15 04:55:00,
2013-05-15 01:00:00,57.3,49.1,30.04,ESE,121,0.0,3.0,74,0.00,,---,0.00,VWS V14.01,2013-05-15 05:00:00,
2013-05-15 01:05:00,57.3,49.1,30.04,SE,130,0.0,2.0,74,0.00,,---,0.00,VWS V14.01,2013-05-15 05:05:00,
2013-05-15 01:10:00,57.4,49.2,30.03,ESE,105,0.0,2.0,74,0.00,,---,0.00,VWS V14.01,2013-05-15 05:10:00,
2013-05-15 01:15:00,57.5,49.7,30.03,ESE,110,0.0,3.0,75,0.00,,---,0.00,VWS V14.01,2013-05-15 05:15:00,
2013-05-15 01:20:00,57.6,49.4,30.03,ESE,117,0.0,3.0,74,0.00,,---,0.00,VWS V14.01,2013-05-15 05:20:00,
2013-05-15 01:25:00,57.7,49.5,30.03,ENE,64,0.0,4.0,74,0.00,,---,0.00,VWS V14.01,2013-05-15 05:25:00,
2013-05-15 01:30:00,57.7,49.8,30.03,ESE,104,1.0,4.0,75,0.00,,---,0.00,VWS V14.01,2013-05-15 05:30:00,
2013-05-15 01:35:00,57.8,49.9,30.03,East,91,0.0,4.0,75,0.00,,---,0.00,VWS V14.01,2013-05-15 05:35:00,
2013-05-15 01:40:00,58.0,50.1,30.02,East,96,0.0,4.0,75,0.00,,---,0.00,VWS V14.01,2013-05-15 05:40:00,
2013-05-15 01:45:00,57.9,50.0,30.03,East,101,1.0,5.0,75,0.00,,---,0.00,VWS V14.01,2013-05-15 05:45:00,
2013-05-15 01:50:00,58.0,50.5,30.02,East,101,0.0,5.0,76,0.00,,---,0.00,VWS V14.01,2013-05-15 05:50:00,
2013-05-15 01:55:00,57.8,50.3,30.02,East,95,0.0,5.0,76,0.00,,---,0.00,VWS V14.01,2013-05-15 05:55:00,
2013-05-15 02:00:00,57.8,50.3,30.02,ESE,114,0.0,5.0,76,0.00,,---,0.00,VWS V14.01,2013-05-15 06:00:00,
2013-05-15 02:05:00,58.0,50.8,30.02,East,84,1.0,4.0,77,0.00,,---,0.00,VWS V14.01,2013-05-15 06:05:00,
2013-05-15 02:10:00,58.2,51.0,30.01,ESE,114,2.0,4.0,77,0.00,,---,0.00,VWS V14.01,2013-05-15 06:10:00,
2013-05-15 02:15:00,58.3,51.1,30.01,East,89,0.0,4.0,77,0.00,,---,0.00,VWS V14.01,2013-05-15 06:15:00,
2013-05-15 02:20:00,58.2,51.4,30.01,ESE,110,1.0,4.0,78,0.00,,---,0.00,VWS V14.01,2013-05-15 06:20:00,
2013-05-15 02:25:00,58.4,51.6,30.01,East,86,0.0,5.0,78,0.00,,---,0.00,VWS V14.01,2013-05-15 06:25:00,
2013-05-15 02:30:00,58.3,51.8,30.00,ESE,103,3.0,5.0,79,0.00,,---,0.00,VWS V14.01,2013-05-15 06:30:00,
2013-05-15 02:35:00,58.2,52.1,30.00,SE,125,0.0,2.0,80,0.00,,---,0.00,VWS V14.01,2013-05-15 06:35:00,
2013-05-15 02:40:00,58.2,52.1,30.00,ESE,116,0.0,3.0,80,0.00,,---,0.00,VWS V14.01,2013-05-15 06:40:00,
2013-05-15 02:45:00,58.3,52.5,30.00,East,98,0.0,3.0,81,0.00,,---,0.00,VWS V14.01,2013-05-15 06:45:00,
2013-05-15 02:50:00,58.2,52.4,30.00,SE,126,0.0,3.0,81,0.00,,---,0.00,VWS V14.01,2013-05-15 06:50:00,
2013-05-15 02:55:00,58.2,52.7,30.00,ESE,114,1.0,4.0,82,0.00,,---,0.00,VWS V14.01,2013-05-15 06:55:00,
2013-05-15 02:56:00,58.2,52.7,30.00,ESE,115,1.0,4.0,82,0.00,,---,0.00,VWS V14.01,2013-05-15 06:56:00,
2013-05-15 03:00:00,58.2,53.1,30.00,East,93,0.0,4.0,83,0.00,,---,0.00,VWS V14.01,2013-05-15 07:00:00,
2013-05-15 03:01:00,58.2,53.1,30.00,East,93,0.0,0.0,83,0.00,,---,0.00,VWS V14.01,2013-05-15 07:01:00,
2013-05-15 03:06:00,58.2,53.1,30.00,SE,127,0.0,4.0,83,0.00,,---,0.00,VWS V14.01,2013-05-15 07:06:00,
2013-05-15 03:11:00,58.3,53.2,29.99,ESE,117,3.0,4.0,83,0.00,,---,0.00,VWS V14.01,2013-05-15 07:11:00,
2013-05-15 03:16:00,58.4,53.3,29.99,East,85,1.0,4.0,83,0.00,,---,0.00,VWS V14.01,2013-05-15 07:16:00,
2013-05-15 03:21:00,58.4,53.3,29.99,East,92,1.0,4.0,83,0.00,,---,0.00,VWS V14.01,2013-05-15 07:21:00,
2013-05-15 03:26:00,58.5,53.4,29.99,WNW,283,1.0,4.0,83,0.00,,---,0.00,VWS V14.01,2013-05-15 07:26:00,
2013-05-15 03:30:00,58.3,51.8,30.00,SE,129,0.0,5.0,79,0.00,,---,0.00,VWS V14.01,2013-05-15 07:30:00,
2013-05-15 03:31:00,58.5,53.7,29.98,East,79,1.0,2.0,84,0.00,,---,0.00,VWS V14.01,2013-05-15 07:31:00,
2013-05-15 03:36:00,58.5,53.7,29.99,ESE,108,4.0,4.0,84,0.00,,---,0.00,VWS V14.01,2013-05-15 07:36:00,
2013-05-15 03:41:00,58.5,53.7,29.99,ESE,102,0.0,5.0,84,0.00,,---,0.00,VWS V14.01,2013-05-15 07:41:00,
2013-05-15 03:46:00,58.5,53.7,29.98,East,98,0.0,5.0,84,0.00,,---,0.00,VWS V14.01,2013-05-15 07:46:00,
2013-05-15 03:51:00,58.4,53.9,29.98,East,84,0.0,5.0,85,0.00,,---,0.00,VWS V14.01,2013-05-15 07:51:00,
2013-05-15 03:56:00,58.5,53.7,29.98,SSW,194,0.0,5.0,84,0.00,,---,0.00,VWS V14.01,2013-05-15 07:56:00,
2013-05-15 04:00:00,58.4,53.9,29.98,ESE,103,2.0,5.0,85,0.00,,---,0.00,VWS V14.01,2013-05-15 08:00:00,
2013-05-15 04:01:00,58.4,53.9,29.98,ESE,112,2.0,3.0,85,0.00,,---,0.00,VWS V14.01,2013-05-15 08:01:00,
2013-05-15 04:06:00,58.1,53.9,29.98,SW,217,1.0,3.0,86,0.00,,---,0.00,VWS V14.01,2013-05-15 08:06:00,
2013-05-15 04:11:00,58.0,53.8,29.98,ESE,111,0.0,3.0,86,0.00,,---,0.00,VWS V14.01,2013-05-15 08:11:00,
2013-05-15 04:16:00,57.8,54.0,29.98,SE,124,0.0,3.0,87,0.00,,---,0.00,VWS V14.01,2013-05-15 08:16:00,
2013-05-15 04:21:00,57.7,53.9,29.98,SE,128,0.0,3.0,87,0.00,,---,0.00,VWS V14.01,2013-05-15 08:21:00,
2013-05-15 04:26:00,57.6,53.8,29.98,East,96,0.0,4.0,87,0.00,,---,0.00,VWS V14.01,2013-05-15 08:26:00,
2013-05-15 04:30:00,57.6,53.8,29.98,ENE,72,2.0,4.0,87,0.00,,---,0.00,VWS V14.01,2013-05-15 08:30:00,
2013-05-15 04:35:00,57.6,53.8,29.97,South,173,1.0,3.0,87,0.00,,---,0.00,VWS V14.01,2013-05-15 08:35:00,
2013-05-15 04:40:00,57.5,53.3,29.97,ESE,105,1.0,8.0,86,0.00,,---,0.00,VWS V14.01,2013-05-15 08:40:00,
2013-05-15 04:45:00,57.4,53.6,29.97,ESE,120,2.0,8.0,87,0.00,,---,0.00,VWS V14.01,2013-05-15 08:45:00,
2013-05-15 04:50:00,57.4,53.6,29.97,WNW,303,0.0,8.0,87,0.00,,---,0.00,VWS V14.01,2013-05-15 08:50:00,
2013-05-15 04:55:00,57.3,53.5,29.96,ESE,105,1.0,8.0,87,0.00,,---,0.00,VWS V14.01,2013-05-15 08:55:00,
2013-05-15 05:00:00,57.2,53.4,29.96,East,85,1.0,8.0,87,0.00,,---,0.00,VWS V14.01,2013-05-15 09:00:00,
2013-05-15 05:05:00,57.2,53.4,29.96,ESE,122,1.0,2.0,87,0.00,,---,0.00,VWS V14.01,2013-05-15 09:05:00,
2013-05-15 05:10:00,57.1,53.3,29.96,SE,129,0.0,3.0,87,0.00,,---,0.00,VWS V14.01,2013-05-15 09:10:00,
2013-05-15 05:15:00,57.0,53.5,29.95,ESE,115,0.0,3.0,88,0.00,,---,0.00,VWS V14.01,2013-05-15 09:15:00,
2013-05-15 05:20:00,57.0,53.5,29.95,WSW,255,0.0,3.0,88,0.00,,---,0.00,VWS V14.01,2013-05-15 09:20:00,
2013-05-15 05:25:00,57.0,53.2,29.95,ESE,110,1.0,4.0,87,0.00,,---,0.00,VWS V14.01,2013-05-15 09:25:00,
2013-05-15 05:30:00,57.6,53.8,29.98,ENE,72,2.0,4.0,87,0.00,,---,0.00,VWS V14.01,2013-05-15 09:30:00,
2013-05-15 05:31:00,56.9,53.1,29.95,ESE,108,0.0,0.0,87,0.00,,---,0.00,VWS V14.01,2013-05-15 09:31:00,
2013-05-15 05:36:00,56.9,53.4,29.96,East,101,0.0,2.0,88,0.00,,---,0.00,VWS V14.01,2013-05-15 09:36:00,
2013-05-15 05:41:00,56.9,53.4,29.95,East,101,0.0,2.0,88,0.00,,---,0.00,VWS V14.01,2013-05-15 09:41:00,
2013-05-15 05:46:00,56.9,53.1,29.95,ESE,112,0.0,3.0,87,0.00,,---,0.00,VWS V14.01,2013-05-15 09:46:00,
2013-05-15 05:51:00,56.9,53.4,29.95,WNW,300,0.0,3.0,88,0.00,,---,0.00,VWS V14.01,2013-05-15 09:51:00,
2013-05-15 05:56:00,56.9,53.4,29.95,East,79,0.0,3.0,88,0.00,,---,0.00,VWS V14.01,2013-05-15 09:56:00,
2013-05-15 06:00:00,56.8,53.3,29.95,East,83,0.0,3.0,88,0.00,,---,0.00,VWS V14.01,2013-05-15 10:00:00,
2013-05-15 06:01:00,56.8,53.3,29.95,East,83,0.0,0.0,88,0.00,,---,0.00,VWS V14.01,2013-05-15 10:01:00,
2013-05-15 06:06:00,56.8,53.6,29.95,ENE,63,0.0,1.0,89,0.00,,---,0.00,VWS V14.01,2013-05-15 10:06:00,
2013-05-15 06:11:00,56.7,53.5,29.95,ENE,72,0.0,1.0,89,0.00,,---,0.00,VWS V14.01,2013-05-15 10:11:00,
2013-05-15 06:16:00,56.7,53.5,29.95,ENE,72,0.0,1.0,89,0.00,,---,0.00,VWS V14.01,2013-05-15 10:16:00,
2013-05-15 06:21:00,56.7,53.5,29.95,ENE,72,0.0,1.0,89,0.00,,---,0.00,VWS V14.01,2013-05-15 10:21:00,
2013-05-15 06:26:00,56.7,53.5,29.95,ENE,73,0.0,1.0,89,0.00,,---,0.00,VWS V14.01,2013-05-15 10:26:00,
2013-05-15 06:30:00,56.7,53.8,29.96,ENE,72,0.0,1.0,90,0.00,,---,0.00,VWS V14.01,2013-05-15 10:30:00,
2013-05-15 06:31:00,56.6,53.7,29.95,ENE,72,1.0,1.0,90,0.00,,---,0.00,VWS V14.01,2013-05-15 10:31:00,
2013-05-15 06:36:00,56.6,53.7,29.96,ENE,72,0.0,1.0,90,0.00,,---,0.00,VWS V14.01,2013-05-15 10:36:00,
2013-05-15 06:41:00,56.7,53.8,29.96,ENE,72,0.0,1.0,90,0.00,,---,0.00,VWS V14.01,2013-05-15 10:41:00,
2013-05-15 06:46:00,56.7,53.8,29.96,ENE,72,0.0,1.0,90,0.00,,---,0.00,VWS V14.01,2013-05-15 10:46:00,
2013-05-15 06:51:00,56.6,53.7,29.96,ENE,72,0.0,1.0,90,0.00,,---,0.00,VWS V14.01,2013-05-15 10:51:00,
2013-05-15 06:56:00,56.6,53.7,29.96,North,7,0.0,2.0,90,0.00,,---,0.00,VWS V14.01,2013-05-15 10:56:00,
2013-05-15 07:00:00,56.6,53.7,29.96,North,7,0.0,2.0,90,0.00,,---,0.00,VWS V14.01,2013-05-15 11:00:00,
2013-05-15 07:01:00,56.6,53.7,29.96,North,7,0.0,0.0,90,0.00,,---,0.00,VWS V14.01,2013-05-15 11:01:00,
2013-05-15 07:06:00,56.7,53.8,29.96,North,7,0.0,0.0,90,0.00,,---,0.00,VWS V14.01,2013-05-15 11:06:00,
2013-05-15 07:11:00,56.9,54.0,29.95,North,7,0.0,0.0,90,0.00,,---,0.00,VWS V14.01,2013-05-15 11:11:00,
2013-05-15 07:16:00,57.1,53.9,29.95,West,265,0.0,1.0,89,0.00,,---,0.00,VWS V14.01,2013-05-15 11:16:00,
2013-05-15 07:21:00,57.2,53.7,29.95,West,265,0.0,1.0,88,0.00,,---,0.00,VWS V14.01,2013-05-15 11:21:00,
2013-05-15 07:26:00,57.5,54.0,29.95,West,265,0.0,1.0,88,0.00,,---,0.00,VWS V14.01,2013-05-15 11:26:00,
2013-05-15 07:30:00,57.7,54.2,29.94,West,265,1.0,1.0,88,0.00,,---,0.00,VWS V14.01,2013-05-15 11:30:00,
2013-05-15 07:31:00,57.7,54.2,29.94,West,265,0.0,1.0,88,0.00,,---,0.00,VWS V14.01,2013-05-15 11:31:00,
2013-05-15 07:36:00,58.1,54.3,29.94,East,97,0.0,2.0,87,0.00,,---,0.00,VWS V14.01,2013-05-15 11:36:00,
2013-05-15 07:41:00,58.7,54.2,29.94,East,97,0.0,2.0,85,0.00,,---,0.00,VWS V14.01,2013-05-15 11:41:00,
2013-05-15 07:46:00,59.4,53.9,29.94,SE,134,0.0,2.0,82,0.00,,---,0.00,VWS V14.01,2013-05-15 11:46:00,
2013-05-15 07:51:00,60.0,53.8,29.93,ENE,76,1.0,2.0,80,0.00,,---,0.00,VWS V14.01,2013-05-15 11:51:00,
2013-05-15 07:56:00,60.7,53.5,29.93,South,172,1.0,2.0,77,0.00,,---,0.00,VWS V14.01,2013-05-15 11:56:00,
2013-05-15 08:00:00,60.9,52.9,29.93,East,98,0.0,3.0,75,0.00,,---,0.00,VWS V14.01,2013-05-15 12:00:00,
2013-05-15 08:01:00,61.1,53.1,29.93,SW,231,0.0,1.0,75,0.00,,---,0.00,VWS V14.01,2013-05-15 12:01:00,
2013-05-15 08:06:00,61.4,51.2,29.93,SE,144,0.0,3.0,69,0.00,,---,0.00,VWS V14.01,2013-05-15 12:06:00,
2013-05-15 08:11:00,62.0,52.1,29.93,SW,215,0.0,3.0,70,0.00,,---,0.00,VWS V14.01,2013-05-15 12:11:00,
2013-05-15 08:16:00,62.6,50.7,29.93,West,264,1.0,3.0,65,0.00,,---,0.00,VWS V14.01,2013-05-15 12:16:00,
2013-05-15 08:21:00,62.2,50.3,29.93,West,264,0.0,5.0,65,0.00,,---,0.00,VWS V14.01,2013-05-15 12:21:00,
2013-05-15 08:26:00,62.0,50.1,29.93,WNW,297,0.0,5.0,65,0.00,,---,0.00,VWS V14.01,2013-05-15 12:26:00,
2013-05-15 08:30:00,61.8,50.3,29.93,WNW,297,0.0,5.0,66,0.00,,---,0.00,VWS V14.01,2013-05-15 12:30:00,
2013-05-15 08:32:00,61.9,50.0,29.93,WNW,297,0.0,0.0,65,0.00,,---,0.00,VWS V14.01,2013-05-15 12:32:00,
2013-05-15 08:37:00,62.3,50.8,29.93,WNW,285,0.0,1.0,66,0.00,,---,0.00,VWS V14.01,2013-05-15 12:37:00,
2013-05-15 08:42:00,63.3,50.9,29.93,West,278,0.0,3.0,64,0.00,,---,0.00,VWS V14.01,2013-05-15 12:42:00,
2013-05-15 08:47:00,63.2,50.8,29.94,West,271,1.0,3.0,64,0.00,,---,0.00,VWS V14.01,2013-05-15 12:47:00,
2013-05-15 08:52:00,62.8,50.0,29.93,WSW,240,0.0,3.0,63,0.00,,---,0.00,VWS V14.01,2013-05-15 12:52:00,
2013-05-15 08:57:00,62.3,49.1,29.94,West,262,0.0,3.0,62,0.00,,---,0.00,VWS V14.01,2013-05-15 12:57:00,
2013-05-15 09:00:00,62.2,49.5,29.94,West,269,0.0,3.0,63,0.00,,---,0.00,VWS V14.01,2013-05-15 13:00:00,
2013-05-15 09:02:00,62.2,49.5,29.94,West,269,1.0,1.0,63,0.00,,---,0.00,VWS V14.01,2013-05-15 13:02:00,
2013-05-15 09:07:00,62.3,49.6,29.94,West,265,0.0,3.0,63,0.00,,---,0.00,VWS V14.01,2013-05-15 13:07:00,
2013-05-15 09:12:00,62.3,49.6,29.94,NNW,340,0.0,3.0,63,0.00,,---,0.00,VWS V14.01,2013-05-15 13:12:00,
2013-05-15 09:17:00,62.7,50.4,29.94,NNW,340,0.0,3.0,64,0.00,,---,0.00,VWS V14.01,2013-05-15 13:17:00,
2013-05-15 09:22:00,62.9,50.5,29.94,North,1,0.0,3.0,64,0.00,,---,0.00,VWS V14.01,2013-05-15 13:22:00,
2013-05-15 09:27:00,63.4,49.7,29.94,WNW,283,1.0,3.0,61,0.00,,---,0.00,VWS V14.01,2013-05-15 13:27:00,
2013-05-15 09:30:00,63.6,49.9,29.94,WNW,283,1.0,3.0,61,0.00,,---,0.00,VWS V14.01,2013-05-15 13:30:00,
2013-05-15 09:32:00,64.2,50.9,29.94,WNW,283,0.0,1.0,62,0.00,,---,0.00,VWS V14.01,2013-05-15 13:32:00,
2013-05-15 09:37:00,66.1,51.8,29.94,NW,313,0.0,2.0,60,0.00,,---,0.00,VWS V14.01,2013-05-15 13:37:00,
2013-05-15 09:42:00,65.8,49.7,29.94,WSW,255,0.0,2.0,56,0.00,,---,0.00,VWS V14.01,2013-05-15 13:42:00,
2013-05-15 09:48:00,64.3,49.2,29.93,WSW,249,0.0,2.0,58,0.00,,---,0.00,VWS V14.01,2013-05-15 13:48:00,
2013-05-15 09:53:00,63.4,50.2,29.93,WSW,252,0.0,2.0,62,0.00,,---,0.00,VWS V14.01,2013-05-15 13:53:00,
2013-05-15 09:58:00,62.4,52.5,29.92,WSW,252,0.0,2.0,70,0.00,,---,0.00,VWS V14.01,2013-05-15 13:58:00,
2013-05-15 10:00:00,62.0,52.1,29.92,WNW,285,1.0,2.0,70,0.00,,---,0.00,VWS V14.01,2013-05-15 14:00:00,
2013-05-15 10:03:00,61.7,51.8,29.91,NW,313,0.0,1.0,70,0.00,,---,0.00,VWS V14.01,2013-05-15 14:03:00,
2013-05-15 10:08:00,61.5,52.8,29.92,NW,313,0.0,1.0,73,0.00,,---,0.00,VWS V14.01,2013-05-15 14:08:00,
2013-05-15 10:13:00,61.4,52.3,29.93,NW,313,0.0,1.0,72,0.00,,---,0.00,VWS V14.01,2013-05-15 14:13:00,
2013-05-15 10:18:00,61.4,52.7,29.92,NW,313,0.0,1.0,73,0.00,,---,0.00,VWS V14.01,2013-05-15 14:18:00,
2013-05-15 10:23:00,61.4,52.3,29.93,NW,313,0.0,1.0,72,0.00,,---,0.00,VWS V14.01,2013-05-15 14:23:00,
2013-05-15 10:28:00,61.8,53.1,29.92,NW,313,0.0,1.0,73,0.00,,---,0.00,VWS V14.01,2013-05-15 14:28:00,
2013-05-15 10:30:00,62.2,53.5,29.92,NW,313,0.0,1.0,73,0.00,,---,0.00,VWS V14.01,2013-05-15 14:30:00,
2013-05-15 10:33:00,62.6,53.5,29.92,NW,309,0.0,2.0,72,0.00,,---,0.00,VWS V14.01,2013-05-15 14:33:00,
2013-05-15 10:38:00,62.8,52.9,29.93,NW,309,0.0,2.0,70,0.00,,---,0.00,VWS V14.01,2013-05-15 14:38:00,
2013-05-15 10:43:00,62.4,52.9,29.92,NW,309,0.0,2.0,71,0.00,,---,0.00,VWS V14.01,2013-05-15 14:43:00,
2013-05-15 10:48:00,62.4,51.7,29.91,ESE,102,0.0,3.0,68,0.00,,---,0.00,VWS V14.01,2013-05-15 14:48:00,
2013-05-15 10:53:00,63.5,53.5,29.90,ESE,103,0.0,3.0,70,0.00,,---,0.00,VWS V14.01,2013-05-15 14:53:00,
2013-05-15 10:58:00,63.9,53.5,29.90,WSW,256,0.0,3.0,69,0.00,,---,0.00,VWS V14.01,2013-05-15 14:58:00,
2013-05-15 11:00:00,62.0,52.1,29.92,WNW,285,1.0,2.0,70,0.00,,---,0.00,VWS V14.01,2013-05-15 15:00:00,
2013-05-15 11:04:00,64.2,53.0,29.89,WSW,250,0.0,3.0,67,0.00,,---,0.00,VWS V14.01,2013-05-15 15:04:00,
2013-05-15 11:09:00,64.5,53.3,29.88,WNW,283,1.0,3.0,67,0.00,,---,0.00,VWS V14.01,2013-05-15 15:09:00,
2013-05-15 11:14:00,64.7,52.7,29.88,WSW,249,1.0,4.0,65,0.00,,---,0.00,VWS V14.01,2013-05-15 15:14:00,
2013-05-15 11:19:00,65.2,52.7,29.88,West,264,0.0,5.0,64,0.00,,---,0.00,VWS V14.01,2013-05-15 15:19:00,
2013-05-15 11:24:00,65.1,53.5,29.88,NW,326,0.0,5.0,66,0.00,,---,0.00,VWS V14.01,2013-05-15 15:24:00,
2013-05-15 11:30:00,65.4,52.9,29.88,West,268,1.0,5.0,64,0.00,,---,0.00,VWS V14.01,2013-05-15 15:30:00,
2013-05-15 11:35:00,65.8,53.3,29.88,West,271,0.0,3.0,64,0.00,,---,0.00,VWS V14.01,2013-05-15 15:35:00,
2013-05-15 11:40:00,65.8,53.3,29.88,ESE,102,0.0,3.0,64,0.00,,---,0.00,VWS V14.01,2013-05-15 15:40:00,
2013-05-15 11:45:00,66.4,53.4,29.88,North,1,1.0,5.0,63,0.00,,---,0.00,VWS V14.01,2013-05-15 15:45:00,
2013-05-15 11:50:00,67.1,53.2,29.88,SW,233,1.0,5.0,61,0.00,,---,0.00,VWS V14.01,2013-05-15 15:50:00,
2013-05-15 11:55:00,66.7,52.8,29.88,NW,325,2.0,5.0,61,0.00,,---,0.00,VWS V14.01,2013-05-15 15:55:00,
2013-05-15 12:00:00,66.3,52.9,29.87,WSW,256,0.0,5.0,62,0.00,,---,0.00,VWS V14.01,2013-05-15 16:00:00,
2013-05-15 12:05:00,67.8,54.3,29.88,West,262,0.0,4.0,62,0.00,,---,0.00,VWS V14.01,2013-05-15 16:05:00,
2013-05-15 12:11:00,69.5,55.0,29.88,NW,308,0.0,4.0,60,0.00,,---,0.00,VWS V14.01,2013-05-15 16:11:00,
2013-05-15 12:16:00,69.1,53.7,29.88,West,265,0.0,5.0,58,0.00,,---,0.00,VWS V14.01,2013-05-15 16:16:00,
2013-05-15 12:21:00,69.5,54.6,29.88,SW,233,0.0,5.0,59,0.00,,---,0.00,VWS V14.01,2013-05-15 16:21:00,
2013-05-15 12:26:00,71.0,55.0,29.88,WSW,253,0.0,5.0,57,0.00,,---,0.00,VWS V14.01,2013-05-15 16:26:00,
2013-05-15 12:30:00,71.3,55.3,29.88,West,260,0.0,5.0,57,0.00,,---,0.00,VWS V14.01,2013-05-15 16:30:00,
2013-05-15 12:31:00,71.3,55.3,29.88,NE,43,1.0,1.0,57,0.00,,---,0.00,VWS V14.01,2013-05-15 16:31:00,
2013-05-15 12:36:00,71.3,55.3,29.88,WSW,252,1.0,3.0,57,0.00,,---,0.00,VWS V14.01,2013-05-15 16:36:00,
2013-05-15 12:42:00,72.3,55.7,29.88,West,260,0.0,4.0,56,0.00,,---,0.00,VWS V14.01,2013-05-15 16:42:00,
2013-05-15 12:47:00,73.2,56.1,29.87,WSW,245,0.0,4.0,55,0.00,,---,0.00,VWS V14.01,2013-05-15 16:47:00,
2013-05-15 12:52:00,72.6,55.5,29.87,WNW,287,0.0,4.0,55,0.00,,---,0.00,VWS V14.01,2013-05-15 16:52:00,
2013-05-15 12:57:00,72.1,56.0,29.87,WNW,297,0.0,4.0,57,0.00,,---,0.00,VWS V14.01,2013-05-15 16:57:00,
2013-05-15 13:00:00,73.1,56.5,29.87,WNW,295,0.0,4.0,56,0.00,,---,0.00,VWS V14.01,2013-05-15 17:00:00,
2013-05-15 13:02:00,73.4,57.3,29.86,WNW,285,2.0,2.0,57,0.00,,---,0.00,VWS V14.01,2013-05-15 17:02:00,
2013-05-15 13:07:00,74.2,56.5,29.86,West,259,0.0,3.0,54,0.00,,---,0.00,VWS V14.01,2013-05-15 17:07:00,
2013-05-15 13:12:00,74.7,57.5,29.86,West,259,1.0,3.0,55,0.00,,---,0.00,VWS V14.01,2013-05-15 17:12:00,
2013-05-15 13:17:00,75.4,57.6,29.85,NNE,20,1.0,6.0,54,0.00,,---,0.00,VWS V14.01,2013-05-15 17:17:00,
2013-05-15 13:22:00,74.6,56.9,29.84,WSW,252,0.0,6.0,54,0.00,,---,0.00,VWS V14.01,2013-05-15 17:22:00,
2013-05-15 13:27:00,73.6,57.0,29.83,WSW,258,0.0,6.0,56,0.00,,---,0.00,VWS V14.01,2013-05-15 17:27:00,
2013-05-15 13:30:00,73.7,57.5,29.82,North,9,1.0,6.0,57,0.00,,---,0.00,VWS V14.01,2013-05-15 17:30:00,
2013-05-15 13:32:00,73.8,57.6,29.82,East,79,1.0,3.0,57,0.00,,---,0.00,VWS V14.01,2013-05-15 17:32:00,
2013-05-15 13:37:00,74.6,58.4,29.81,WSW,238,1.0,4.0,57,0.00,,---,0.00,VWS V14.01,2013-05-15 17:37:00,
2013-05-15 13:42:00,75.7,59.4,29.81,ENE,69,2.0,4.0,57,0.00,,---,0.00,VWS V14.01,2013-05-15 17:42:00,
2013-05-15 13:47:00,75.7,59.9,29.82,East,84,0.0,4.0,58,0.00,,---,0.00,VWS V14.01,2013-05-15 17:47:00,
2013-05-15 13:52:00,77.4,61.0,29.82,NW,309,0.0,4.0,57,0.00,,---,0.00,VWS V14.01,2013-05-15 17:52:00,
2013-05-15 13:57:00,77.0,59.6,29.82,NW,321,0.0,5.0,55,0.00,,---,0.00,VWS V14.01,2013-05-15 17:57:00,
2013-05-15 14:00:00,77.8,59.8,29.82,ESE,111,1.0,5.0,54,0.00,,---,0.00,VWS V14.01,2013-05-15 18:00:00,
2013-05-15 14:02:00,77.6,60.7,29.82,SSE,151,0.0,2.0,56,0.00,,---,0.00,VWS V14.01,2013-05-15 18:02:00,
2013-05-15 14:07:00,78.4,62.4,29.85,NNW,328,3.0,4.0,58,0.00,,---,0.00,VWS V14.01,2013-05-15 18:07:00,
2013-05-15 14:13:00,77.3,60.9,29.87,NNW,328,0.0,4.0,57,0.00,,---,0.00,VWS V14.01,2013-05-15 18:13:00,
2013-05-15 14:18:00,77.6,60.7,29.85,South,186,0.0,4.0,56,0.00,,---,0.00,VWS V14.01,2013-05-15 18:18:00,
2013-05-15 14:23:00,78.2,60.2,29.85,NNW,332,0.0,4.0,54,0.00,,---,0.00,VWS V14.01,2013-05-15 18:23:00,
2013-05-15 14:28:00,77.6,59.7,29.85,East,89,0.0,4.0,54,0.00,,---,0.00,VWS V14.01,2013-05-15 18:28:00,
2013-05-15 14:30:00,77.3,59.4,29.85,East,100,1.0,4.0,54,0.00,,---,0.00,VWS V14.01,2013-05-15 18:30:00,
2013-05-15 14:33:00,77.1,61.7,29.84,NW,324,1.0,5.0,59,0.00,,---,0.00,VWS V14.01,2013-05-15 18:33:00,
2013-05-15 14:38:00,77.5,61.1,29.84,NW,325,2.0,5.0,57,0.00,,---,0.00,VWS V14.01,2013-05-15 18:38:00,
2013-05-15 14:43:00,77.0,58.6,29.84,ESE,119,2.0,5.0,53,0.00,,---,0.00,VWS V14.01,2013-05-15 18:43:00,
2013-05-15 14:48:00,77.1,59.7,29.83,WNW,301,1.0,5.0,55,0.00,,---,0.00,VWS V14.01,2013-05-15 18:48:00,
2013-05-15 14:53:00,76.7,58.8,29.82,ESE,122,0.0,5.0,54,0.00,,---,0.00,VWS V14.01,2013-05-15 18:53:00,
2013-05-15 14:59:00,76.6,61.2,29.82,NW,324,1.0,5.0,59,0.00,,---,0.00,VWS V14.01,2013-05-15 18:59:00,
2013-05-15 15:00:00,76.9,59.5,29.82,NNW,330,5.0,5.0,55,0.00,,---,0.00,VWS V14.01,2013-05-15 19:00:00,
2013-05-15 15:04:00,76.9,59.5,29.82,NNE,30,3.0,5.0,55,0.00,,---,0.00,VWS V14.01,2013-05-15 19:04:00,
2013-05-15 15:09:00,76.4,60.1,29.82,NE,54,2.0,6.0,57,0.00,,---,0.00,VWS V14.01,2013-05-15 19:09:00,
2013-05-15 15:14:00,76.1,60.8,29.81,ENE,61,1.0,6.0,59,0.00,,---,0.00,VWS V14.01,2013-05-15 19:14:00,
2013-05-15 15:19:00,75.9,60.1,29.81,ESE,104,1.0,6.0,58,0.00,,---,0.00,VWS V14.01,2013-05-15 19:19:00,
2013-05-15 15:24:00,76.7,61.8,29.80,ENE,75,1.0,6.0,60,0.00,,---,0.00,VWS V14.01,2013-05-15 19:24:00,
2013-05-15 15:29:00,77.3,59.9,29.80,ESE,108,3.0,6.0,55,0.00,,---,0.00,VWS V14.01,2013-05-15 19:29:00,
2013-05-15 15:30:00,76.9,59.5,29.80,NE,43,2.0,6.0,55,0.00,,---,0.00,VWS V14.01,2013-05-15 19:30:00,
2013-05-15 15:34:00,76.2,59.9,29.79,East,91,3.0,5.0,57,0.00,,---,0.00,VWS V14.01,2013-05-15 19:34:00,
2013-05-15 15:40:00,77.0,60.1,29.79,ESE,120,1.0,6.0,56,0.00,,---,0.00,VWS V14.01,2013-05-15 19:40:00,
2013-05-15 15:45:00,77.5,60.1,29.78,ESE,118,2.0,6.0,55,0.00,,---,0.00,VWS V14.01,2013-05-15 19:45:00,
2013-05-15 15:50:00,77.5,60.1,29.77,NE,36,1.0,6.0,55,0.00,,---,0.00,VWS V14.01,2013-05-15 19:50:00,
2013-05-15 15:55:00,76.4,59.6,29.77,ESE,102,2.0,6.0,56,0.00,,---,0.00,VWS V14.01,2013-05-15 19:55:00,
2013-05-15 16:00:00,75.6,59.8,29.76,ESE,115,3.0,6.0,58,0.00,,---,0.00,VWS V14.01,2013-05-15 20:00:00,
2013-05-15 16:05:00,76.6,60.2,29.75,SE,132,3.0,4.0,57,0.00,,---,0.00,VWS V14.01,2013-05-15 20:05:00,
2013-05-15 16:10:00,77.0,60.1,29.75,SSE,163,2.0,4.0,56,0.00,,---,0.00,VWS V14.01,2013-05-15 20:10:00,
2013-05-15 16:16:00,77.0,61.1,29.74,East,84,1.0,4.0,58,0.00,,---,0.00,VWS V14.01,2013-05-15 20:16:00,
2013-05-15 16:21:00,77.6,61.2,29.74,East,84,0.0,5.0,57,0.00,,---,0.00,VWS V14.01,2013-05-15 20:21:00,
2013-05-15 16:26:00,78.1,61.1,29.74,East,84,1.0,5.0,56,0.00,,---,0.00,VWS V14.01,2013-05-15 20:26:00,
2013-05-15 16:30:00,78.4,61.9,29.74,WSW,245,1.0,5.0,57,0.00,,---,0.00,VWS V14.01,2013-05-15 20:30:00,
2013-05-15 16:31:00,78.4,61.9,29.74,WSW,248,2.0,3.0,57,0.00,,---,0.00,VWS V14.01,2013-05-15 20:31:00,
2013-05-15 16:36:00,78.6,62.1,29.74,East,95,1.0,3.0,57,0.00,,---,0.00,VWS V14.01,2013-05-15 20:36:00,
2013-05-15 16:41:00,78.5,62.5,29.73,East,94,0.0,4.0,58,0.00,,---,0.00,VWS V14.01,2013-05-15 20:41:00,
2013-05-15 16:46:00,78.7,61.7,29.73,WNW,293,0.0,5.0,56,0.00,,---,0.00,VWS V14.01,2013-05-15 20:46:00,
2013-05-15 16:51:00,78.7,61.7,29.72,East,89,1.0,5.0,56,0.00,,---,0.00,VWS V14.01,2013-05-15 20:51:00,
2013-05-15 16:56:00,78.5,61.5,29.71,WSW,243,2.0,5.0,56,0.00,,---,0.00,VWS V14.01,2013-05-15 20:56:00,
2013-05-15 17:00:00,78.3,61.8,29.71,West,264,3.0,5.0,57,0.00,,---,0.00,VWS V14.01,2013-05-15 21:00:00,
2013-05-15 17:01:00,78.2,61.7,29.71,WSW,253,4.0,4.0,57,0.00,,---,0.00,VWS V14.01,2013-05-15 21:01:00,
2013-05-15 17:06:00,77.9,61.5,29.71,East,86,1.0,5.0,57,0.00,,---,0.00,VWS V14.01,2013-05-15 21:06:00,
2013-05-15 17:12:00,77.7,62.2,29.71,ENE,78,0.0,5.0,59,0.00,,---,0.00,VWS V14.01,2013-05-15 21:12:00,
2013-05-15 17:17:00,77.8,61.9,29.70,ESE,105,0.0,5.0,58,0.00,,---,0.00,VWS V14.01,2013-05-15 21:17:00,
2013-05-15 17:22:00,77.9,63.4,29.70,ESE,118,2.0,5.0,61,0.00,,---,0.00,VWS V14.01,2013-05-15 21:22:00,
2013-05-15 17:27:00,78.3,62.3,29.70,East,92,2.0,5.0,58,0.00,,---,0.00,VWS V14.01,2013-05-15 21:27:00,
2013-05-15 17:30:00,78.4,62.9,29.70,West,264,1.0,5.0,59,0.00,,---,0.00,VWS V14.01,2013-05-15 21:30:00,
2013-05-15 17:32:00,78.4,62.9,29.70,East,86,2.0,2.0,59,0.00,,---,0.00,VWS V14.01,2013-05-15 21:32:00,
2013-05-15 17:37:00,77.7,62.7,29.69,ESE,110,3.0,5.0,60,0.00,,---,0.00,VWS V14.01,2013-05-15 21:37:00,
2013-05-15 17:42:00,77.7,62.7,29.69,NNE,32,0.0,5.0,60,0.00,,---,0.00,VWS V14.01,2013-05-15 21:42:00,
2013-05-15 17:47:00,78.0,63.0,29.69,ENE,76,1.0,5.0,60,0.00,,---,0.00,VWS V14.01,2013-05-15 21:47:00,
2013-05-15 17:52:00,77.6,62.6,29.68,ENE,68,0.0,7.0,60,0.00,,---,0.00,VWS V14.01,2013-05-15 21:52:00,
2013-05-15 17:57:00,77.6,63.6,29.68,ENE,60,0.0,7.0,62,0.00,,---,0.00,VWS V14.01,2013-05-15 21:57:00,
2013-05-15 18:00:00,77.4,62.9,29.68,East,90,0.0,7.0,61,0.00,,---,0.00,VWS V14.01,2013-05-15 22:00:00,
2013-05-15 18:02:00,77.5,63.0,29.68,SSE,162,0.0,1.0,61,0.00,,---,0.00,VWS V14.01,2013-05-15 22:02:00,
2013-05-15 18:07:00,77.5,63.5,29.68,ESE,110,1.0,4.0,62,0.00,,---,0.00,VWS V14.01,2013-05-15 22:07:00,
2013-05-15 18:12:00,77.1,63.1,29.68,ESE,105,0.0,4.0,62,0.00,,---,0.00,VWS V14.01,2013-05-15 22:12:00,
2013-05-15 18:17:00,77.1,64.0,29.68,East,97,0.0,4.0,64,0.00,,---,0.00,VWS V14.01,2013-05-15 22:17:00,
2013-05-15 18:22:00,77.2,63.6,29.68,East,101,0.0,4.0,63,0.00,,---,0.00,VWS V14.01,2013-05-15 22:22:00,
2013-05-15 18:27:00,77.1,64.0,29.67,ESE,104,0.0,4.0,64,0.00,,---,0.00,VWS V14.01,2013-05-15 22:27:00,
2013-05-15 18:30:00,77.1,64.0,29.67,ESE,104,0.0,4.0,64,0.00,,---,0.00,VWS V14.01,2013-05-15 22:30:00,
2013-05-15 18:32:00,77.1,64.0,29.67,ESE,106,0.0,2.0,64,0.00,,---,0.00,VWS V14.01,2013-05-15 22:32:00,
2013-05-15 18:37:00,77.0,63.9,29.67,ESE,103,1.0,2.0,64,0.00,,---,0.00,VWS V14.01,2013-05-15 22:37:00,
2013-05-15 18:42:00,77.0,64.8,29.67,ESE,103,0.0,2.0,66,0.00,,---,0.00,VWS V14.01,2013-05-15 22:42:00,
2013-05-15 18:47:00,76.6,64.8,29.68,ESE,103,0.0,2.0,67,0.00,,---,0.00,VWS V14.01,2013-05-15 22:47:00,
2013-05-15 18:52:00,76.5,65.2,29.68,ESE,103,0.0,2.0,68,0.00,,---,0.00,VWS V14.01,2013-05-15 22:52:00,
2013-05-15 18:58:00,76.3,65.0,29.68,ESE,103,0.0,2.0,68,0.00,,---,0.00,VWS V14.01,2013-05-15 22:58:00,
2013-05-15 19:00:00,76.1,65.2,29.68,ESE,103,0.0,2.0,69,0.00,,---,0.00,VWS V14.01,2013-05-15 23:00:00,
2013-05-15 19:03:00,75.9,65.0,29.68,ESE,103,0.0,0.0,69,0.00,,---,0.00,VWS V14.01,2013-05-15 23:03:00,
2013-05-15 19:08:00,75.9,65.0,29.68,ESE,103,0.0,1.0,69,0.00,,---,0.00,VWS V14.01,2013-05-15 23:08:00,
2013-05-15 19:13:00,75.4,65.8,29.68,ESE,103,0.0,1.0,72,0.00,,---,0.00,VWS V14.01,2013-05-15 23:13:00,
2013-05-15 19:18:00,74.8,65.6,29.68,ESE,103,0.0,1.0,73,0.00,,---,0.00,VWS V14.01,2013-05-15 23:18:00,
2013-05-15 19:23:00,74.3,65.5,29.68,ESE,103,0.0,1.0,74,0.00,,---,0.00,VWS V14.01,2013-05-15 23:23:00,
2013-05-15 19:28:00,74.2,65.4,29.68,ESE,103,0.0,1.0,74,0.00,,---,0.00,VWS V14.01,2013-05-15 23:28:00,
2013-05-15 19:30:00,73.8,65.4,29.68,ESE,103,0.0,1.0,75,0.00,,---,0.00,VWS V14.01,2013-05-15 23:30:00,
2013-05-15 19:33:00,73.5,65.1,29.69,ESE,103,0.0,1.0,75,0.00,,---,0.00,VWS V14.01,2013-05-15 23:33:00,
2013-05-15 19:38:00,73.1,65.5,29.69,ESE,103,1.0,1.0,77,0.00,,---,0.00,VWS V14.01,2013-05-15 23:38:00,
2013-05-15 19:43:00,73.4,65.0,29.69,ESE,103,0.0,1.0,75,0.00,,---,0.00,VWS V14.01,2013-05-15 23:43:00,
2013-05-15 19:48:00,73.5,65.5,29.69,ESE,103,0.0,1.0,76,0.00,,---,0.00,VWS V14.01,2013-05-15 23:48:00,
2013-05-15 19:53:00,72.8,65.2,29.69,ESE,103,0.0,1.0,77,0.00,,---,0.00,VWS V14.01,2013-05-15 23:53:00,
2013-05-15 19:58:00,72.3,65.1,29.69,ESE,103,0.0,1.0,78,0.00,,---,0.00,VWS V14.01,2013-05-15 23:58:00,
2013-05-15 20:00:00,76.1,65.2,29.68,ESE,103,0.0,2.0,69,0.00,,---,0.00,VWS V14.01,2013-05-16 00:00:00,
2013-05-15 20:03:00,72.2,65.0,29.69,ESE,103,0.0,0.0,78,0.00,,---,0.00,VWS V14.01,2013-05-16 00:03:00,
2013-05-15 20:08:00,72.0,65.1,29.69,ESE,103,0.0,0.0,79,0.00,,---,0.00,VWS V14.01,2013-05-16 00:08:00,
2013-05-15 20:13:00,71.9,65.0,29.70,ESE,103,0.0,0.0,79,0.00,,---,0.00,VWS V14.01,2013-05-16 00:13:00,
2013-05-15 20:18:00,72.1,65.2,29.70,ESE,103,0.0,0.0,79,0.00,,---,0.00,VWS V14.01,2013-05-16 00:18:00,
2013-05-15 20:23:00,72.1,65.2,29.70,ESE,103,0.0,0.0,79,0.00,,---,0.00,VWS V14.01,2013-05-16 00:23:00,
2013-05-15 20:29:00,72.3,65.4,29.70,ESE,103,0.0,0.0,79,0.00,,---,0.00,VWS V14.01,2013-05-16 00:29:00,
2013-05-15 20:30:00,72.4,65.2,29.70,ESE,103,0.0,0.0,78,0.00,,---,0.00,VWS V14.01,2013-05-16 00:30:00,
2013-05-15 20:34:00,72.5,65.3,29.70,ESE,103,0.0,0.0,78,0.00,,---,0.00,VWS V14.01,2013-05-16 00:34:00,
2013-05-15 20:39:00,72.7,65.4,29.70,ESE,103,0.0,0.0,78,0.00,,---,0.00,VWS V14.01,2013-05-16 00:39:00,
2013-05-15 20:44:00,72.6,65.0,29.70,ESE,103,0.0,0.0,77,0.00,,---,0.00,VWS V14.01,2013-05-16 00:44:00,
2013-05-15 20:49:00,73.0,64.6,29.70,ESE,103,0.0,1.0,75,0.00,,---,0.00,VWS V14.01,2013-05-16 00:49:00,
2013-05-15 20:54:00,73.0,65.0,29.70,ESE,103,0.0,1.0,76,0.00,,---,0.00,VWS V14.01,2013-05-16 00:54:00,
2013-05-15 20:59:00,74.3,64.7,29.70,ESE,103,0.0,1.0,72,0.00,,---,0.00,VWS V14.01,2013-05-16 00:59:00,
2013-05-15 21:00:00,74.8,64.8,29.70,ESE,103,0.0,1.0,71,0.00,,---,0.00,VWS V14.01,2013-05-16 01:00:00,
2013-05-15 21:04:00,75.5,64.6,29.70,WSW,245,3.0,3.0,69,0.00,,---,0.00,VWS V14.01,2013-05-16 01:04:00,
2013-05-15 21:09:00,76.6,64.4,29.70,WSW,252,0.0,3.0,66,0.00,,---,0.00,VWS V14.01,2013-05-16 01:09:00,
2013-05-15 21:14:00,77.1,64.4,29.71,WSW,252,0.0,3.0,65,0.00,,---,0.00,VWS V14.01,2013-05-16 01:14:00,
2013-05-15 21:19:00,77.5,64.4,29.71,WSW,252,0.0,3.0,64,0.00,,---,0.00,VWS V14.01,2013-05-16 01:19:00,
2013-05-15 21:25:00,77.8,64.2,29.71,WSW,252,0.0,3.0,63,0.00,,---,0.00,VWS V14.01,2013-05-16 01:25:00,
2013-05-15 21:30:00,78.1,64.5,29.71,WSW,252,0.0,3.0,63,0.00,,---,0.00,VWS V14.01,2013-05-16 01:30:00,
2013-05-15 21:35:00,78.1,64.5,29.71,West,270,0.0,2.0,63,0.00,,---,0.00,VWS V14.01,2013-05-16 01:35:00,
2013-05-15 21:40:00,78.1,64.0,29.72,West,265,0.0,2.0,62,0.00,,---,0.00,VWS V14.01,2013-05-16 01:40:00,
2013-05-15 21:45:00,78.3,64.2,29.72,West,265,0.0,2.0,62,0.00,,---,0.00,VWS V14.01,2013-05-16 01:45:00,
2013-05-15 21:50:00,78.4,64.3,29.72,West,265,0.0,2.0,62,0.00,,---,0.00,VWS V14.01,2013-05-16 01:50:00,
2013-05-15 21:55:00,78.5,64.4,29.72,West,265,0.0,2.0,62,0.00,,---,0.00,VWS V14.01,2013-05-16 01:55:00,
2013-05-15 22:00:00,78.5,64.4,29.72,West,265,0.0,2.0,62,0.00,,---,0.00,VWS V14.01,2013-05-16 02:00:00,
2013-05-15 22:05:00,78.4,64.3,29.73,West,265,0.0,2.0,62,0.00,,---,0.00,VWS V14.01,2013-05-16 02:05:00,
2013-05-15 22:10:00,78.4,64.3,29.73,WSW,240,0.0,2.0,62,0.00,,---,0.00,VWS V14.01,2013-05-16 02:10:00,
2013-05-15 22:15:00,78.2,64.1,29.73,WNW,290,0.0,2.0,62,0.00,,---,0.00,VWS V14.01,2013-05-16 02:15:00,
2013-05-15 22:20:00,78.3,64.2,29.73,WNW,285,0.0,2.0,62,0.00,,---,0.00,VWS V14.01,2013-05-16 02:20:00,
2013-05-15 22:26:00,77.9,64.3,29.73,WNW,285,0.0,2.0,63,0.00,,---,0.00,VWS V14.01,2013-05-16 02:26:00,
2013-05-15 22:30:00,77.8,64.2,29.73,WNW,285,0.0,2.0,63,0.00,,---,0.00,VWS V14.01,2013-05-16 02:30:00,
2013-05-15 22:31:00,77.8,64.2,29.73,WNW,285,0.0,0.0,63,0.00,,---,0.00,VWS V14.01,2013-05-16 02:31:00,
2013-05-15 22:36:00,77.7,64.6,29.73,WSW,258,3.0,3.0,64,0.00,,---,0.00,VWS V14.01,2013-05-16 02:36:00,
2013-05-15 22:41:00,77.6,64.5,29.73,WSW,258,0.0,3.0,64,0.00,,---,0.00,VWS V14.01,2013-05-16 02:41:00,
2013-05-15 22:46:00,77.7,64.6,29.73,WSW,258,0.0,3.0,64,0.00,,---,0.00,VWS V14.01,2013-05-16 02:46:00,
2013-05-15 22:51:00,77.8,64.2,29.73,WSW,239,0.0,3.0,63,0.00,,---,0.00,VWS V14.01,2013-05-16 02:51:00,
2013-05-15 22:56:00,77.7,64.6,29.73,WSW,239,0.0,3.0,64,0.00,,---,0.00,VWS V14.01,2013-05-16 02:56:00,
2013-05-15 23:00:00,77.6,64.5,29.73,WSW,239,0.0,3.0,64,0.00,,---,0.00,VWS V14.01,2013-05-16 03:00:00,
2013-05-15 23:01:00,77.6,64.5,29.73,WSW,239,0.0,0.0,64,0.00,,---,0.00,VWS V14.01,2013-05-16 03:01:00,
2013-05-15 23:06:00,77.3,64.6,29.73,SW,231,0.0,1.0,65,0.00,,---,0.00,VWS V14.01,2013-05-16 03:06:00,
2013-05-15 23:11:00,77.2,64.5,29.73,SW,231,1.0,1.0,65,0.00,,---,0.00,VWS V14.01,2013-05-16 03:11:00,
2013-05-15 23:16:00,77.1,64.4,29.73,SW,231,0.0,1.0,65,0.00,,---,0.00,VWS V14.01,2013-05-16 03:16:00,
2013-05-15 23:21:00,77.0,64.8,29.73,SW,231,0.0,1.0,66,0.00,,---,0.00,VWS V14.01,2013-05-16 03:21:00,
2013-05-15 23:26:00,76.8,64.6,29.73,SW,231,0.0,1.0,66,0.00,,---,0.00,VWS V14.01,2013-05-16 03:26:00,
2013-05-15 23:30:00,76.9,64.7,29.73,SW,231,0.0,1.0,66,0.00,,---,0.00,VWS V14.01,2013-05-16 03:30:00,
2013-05-15 23:31:00,76.9,64.7,29.73,SW,231,0.0,0.0,66,0.00,,---,0.00,VWS V14.01,2013-05-16 03:31:00,
2013-05-15 23:36:00,77.0,64.8,29.73,SW,231,0.0,1.0,66,0.00,,---,0.00,VWS V14.01,2013-05-16 03:36:00,
2013-05-15 23:41:00,76.9,64.7,29.73,SW,231,0.0,1.0,66,0.00,,---,0.00,VWS V14.01,2013-05-16 03:41:00,
2013-05-15 23:46:00,76.8,64.6,29.73,SW,231,0.0,1.0,66,0.00,,---,0.00,VWS V14.01,2013-05-16 03:46:00,
2013-05-15 23:52:00,76.5,64.7,29.73,SW,231,0.0,1.0,67,0.00,,---,0.00,VWS V14.01,2013-05-16 03:52:00,
2013-05-15 23:57:00,76.5,64.7,29.73,SW,231,0.0,1.0,67,0.00,,---,0.00,VWS V14.01,2013-05-16 03:57:00,